Time;durP1;ratioP1;P1;durP2;ratioP2;P2;SDS_P1;SDS_P2;PMS_P1;PMS_P2;Temp;Humidity;BMP_temperature;BMP_pressure;BME280_temperature;BME280_humidity;BME280_pressure;Samples;Min_cycle;Max_cycle;Signal;HPM_P1;HPM_P2
2023/01/07 00:01:28;;;;;;;2.57;1.80;;;12.90;99.90;;;;;;5009990;28;20538;-74
2023/01/07 00:03:55;;;;;;;2.13;1.77;;;12.90;99.90;;;;;;5012797;28;20443;-79
2023/01/07 00:06:29;;;;;;;2.43;1.67;;;12.80;99.90;;;;;;5012004;28;20566;-79
2023/01/07 00:08:56;;;;;;;2.30;1.70;;;12.80;99.90;;;;;;5001818;28;20528;-77
2023/01/07 00:11:25;;;;;;;2.87;1.77;;;12.80;99.90;;;;;;5005162;28;20873;-78
2023/01/07 00:13:52;;;;;;;2.13;1.87;;;12.80;99.90;;;;;;5007274;28;20427;-72
2023/01/07 00:16:21;;;;;;;2.33;1.70;;;12.80;99.90;;;;;;5006579;28;20463;-71
2023/01/07 00:18:49;;;;;;;2.80;1.73;;;12.80;99.90;;;;;;5011032;28;20488;-73
2023/01/07 00:21:16;;;;;;;2.07;1.70;;;12.80;99.90;;;;;;5020977;28;21242;-72
2023/01/07 00:23:44;;;;;;;3.10;2.13;;;12.80;99.90;;;;;;5012811;28;20973;-72
2023/01/07 00:26:16;;;;;;;4.10;2.07;;;12.70;99.90;;;;;;5010829;28;20537;-71
2023/01/07 00:28:43;;;;;;;2.07;1.60;;;12.90;99.90;;;;;;5008033;28;20494;-72
2023/01/07 00:31:13;;;;;;;6.53;2.30;;;12.90;99.90;;;;;;5014707;28;20447;-72
2023/01/07 00:33:48;;;;;;;3.73;2.00;;;12.80;99.90;;;;;;5012834;28;20920;-71
2023/01/07 00:36:14;;;;;;;6.00;1.80;;;12.90;99.90;;;;;;5013739;28;20481;-71
2023/01/07 00:38:39;;;;;;;4.97;1.80;;;12.80;99.90;;;;;;5008342;28;21930;-72
2023/01/07 00:41:05;;;;;;;2.67;2.30;;;12.70;99.90;;;;;;5013752;28;20466;-73
2023/01/07 00:43:31;;;;;;;4.90;2.40;;;12.80;99.90;;;;;;5012422;28;20197;-73
2023/01/07 00:45:57;;;;;;;10.43;2.77;;;12.70;99.90;;;;;;5017617;28;20326;-74
2023/01/07 00:48:24;;;;;;;2.10;1.70;;;12.70;99.90;;;;;;5018595;28;20446;-74
2023/01/07 00:50:50;;;;;;;3.03;2.33;;;12.80;99.90;;;;;;5019712;28;20534;-74
2023/01/07 00:53:17;;;;;;;2.97;2.60;;;12.80;99.90;;;;;;5019513;28;20514;-73
2023/01/07 00:55:43;;;;;;;2.97;2.00;;;12.80;99.90;;;;;;5010802;28;20468;-74
2023/01/07 00:58:19;;;;;;;3.00;1.70;;;13.00;99.90;;;;;;5017597;28;20432;-73
2023/01/07 01:00:45;;;;;;;2.40;1.90;;;13.00;99.90;;;;;;5017246;28;20966;-73
2023/01/07 01:03:11;;;;;;;2.70;1.70;;;13.00;99.90;;;;;;5022916;28;20489;-73
2023/01/07 01:05:37;;;;;;;2.57;1.77;;;12.90;99.90;;;;;;5017136;28;20733;-73
2023/01/07 01:08:03;;;;;;;2.50;1.97;;;12.80;99.90;;;;;;5018492;28;20955;-73
2023/01/07 01:10:28;;;;;;;2.53;1.97;;;12.80;99.90;;;;;;5018567;28;20496;-73
2023/01/07 01:12:54;;;;;;;2.90;2.10;;;12.80;99.90;;;;;;5016926;28;20180;-74
2023/01/07 01:15:20;;;;;;;3.10;1.90;;;12.80;99.90;;;;;;5016333;28;20983;-73
2023/01/07 01:17:45;;;;;;;2.73;1.90;;;12.80;99.90;;;;;;5014686;28;20180;-73
2023/01/07 01:20:13;;;;;;;2.40;1.73;;;12.80;99.90;;;;;;5015667;28;20451;-73
2023/01/07 01:22:38;;;;;;;2.23;1.70;;;12.80;99.90;;;;;;5015958;28;20180;-73
2023/01/07 01:25:04;;;;;;;2.73;2.13;;;12.80;99.90;;;;;;5020948;28;20437;-73
2023/01/07 01:27:30;;;;;;;3.53;1.90;;;12.80;99.90;;;;;;5018407;28;20224;-72
2023/01/07 01:29:57;;;;;;;2.37;1.70;;;12.80;99.90;;;;;;5015657;28;20435;-73
2023/01/07 01:32:23;;;;;;;2.20;1.70;;;12.80;99.90;;;;;;5018541;28;20187;-73
2023/01/07 01:34:49;;;;;;;2.53;1.67;;;12.70;99.90;;;;;;5020142;28;20432;-73
2023/01/07 01:37:15;;;;;;;2.83;1.80;;;12.80;99.90;;;;;;5015599;28;20512;-73
2023/01/07 01:39:41;;;;;;;2.90;1.80;;;12.80;99.90;;;;;;5018419;28;20283;-73
2023/01/07 01:42:16;;;;;;;3.70;2.10;;;12.80;99.90;;;;;;5015309;28;21022;-73
2023/01/07 01:44:53;;;;;;;4.23;2.07;;;12.80;99.90;;;;;;5016615;28;20246;-73
2023/01/07 01:47:19;;;;;;;2.30;2.00;;;12.70;99.90;;;;;;5021098;28;20478;-74
2023/01/07 01:49:53;;;;;;;2.83;1.97;;;12.70;99.90;;;;;;5016170;28;21012;-74
2023/01/07 01:52:23;;;;;;;2.53;2.33;;;12.70;99.90;;;;;;5018708;28;20489;-74
2023/01/07 01:54:55;;;;;;;2.40;1.93;;;12.70;99.90;;;;;;5015252;28;21001;-74
2023/01/07 01:57:22;;;;;;;2.83;2.37;;;12.70;99.90;;;;;;5015450;28;20462;-74
2023/01/07 01:59:51;;;;;;;2.30;1.80;;;12.70;99.90;;;;;;5022290;28;20492;-73
2023/01/07 02:02:28;;;;;;;2.27;1.83;;;12.70;99.90;;;;;;5018639;28;20494;-73
2023/01/07 02:04:55;;;;;;;2.23;1.97;;;12.80;99.90;;;;;;5021953;28;20940;-73
2023/01/07 02:07:20;;;;;;;2.17;1.50;;;12.80;99.90;;;;;;5015832;28;20933;-73
2023/01/07 02:10:08;;;;;;;3.47;2.10;;;12.80;99.90;;;;;;5018743;28;20467;-74
2023/01/07 02:13:21;;;;;;;3.13;2.30;;;12.90;99.90;;;;;;5021196;28;20548;-74
2023/01/07 02:15:58;;;;;;;2.33;1.83;;;12.80;99.90;;;;;;5015394;28;20450;-73
2023/01/07 02:18:46;;;;;;;3.00;2.03;;;12.80;99.90;;;;;;5016170;28;20419;-74
2023/01/07 02:21:30;;;;;;;2.80;1.77;;;12.80;99.90;;;;;;5015867;28;20844;-74
2023/01/07 02:24:24;;;;;;;2.93;2.10;;;12.80;99.90;;;;;;5014675;28;20745;-74
2023/01/07 02:27:24;;;;;;;3.17;2.07;;;12.80;99.90;;;;;;5012192;28;20502;-74
2023/01/07 02:30:11;;;;;;;2.10;1.77;;;12.80;99.90;;;;;;5011948;28;21408;-74
2023/01/07 02:32:46;;;;;;;2.60;1.90;;;12.80;99.90;;;;;;5013201;28;20527;-74
2023/01/07 02:35:14;;;;;;;2.20;1.90;;;12.90;99.90;;;;;;5013017;28;20446;-74
2023/01/07 02:37:49;;;;;;;2.20;1.60;;;12.90;99.90;;;;;;5012374;28;20951;-72
2023/01/07 02:40:49;;;;;;;3.80;1.90;;;12.90;99.90;;;;;;5015447;28;20451;-72
2023/01/07 02:43:24;;;;;;;3.13;1.90;;;12.90;99.90;;;;;;5012692;28;20440;-73
2023/01/07 02:46:10;;;;;;;2.40;1.80;;;12.80;99.90;;;;;;5018759;28;20468;-72
2023/01/07 02:48:37;;;;;;;2.80;2.10;;;12.80;99.90;;;;;;5013503;28;20603;-72
2023/01/07 02:51:03;;;;;;;2.67;1.90;;;12.80;99.90;;;;;;5016463;28;20451;-73
2023/01/07 02:53:30;;;;;;;3.43;2.03;;;12.80;99.90;;;;;;5006715;28;20441;-72
2023/01/07 02:56:16;;;;;;;3.10;2.27;;;12.80;99.90;;;;;;5012030;28;20217;-72
2023/01/07 02:58:59;;;;;;;2.43;2.07;;;12.80;99.90;;;;;;5013612;28;20435;-72
2023/01/07 03:01:46;;;;;;;3.03;2.43;;;12.80;99.90;;;;;;5015816;28;20439;-72
2023/01/07 03:04:26;;;;;;;2.70;2.10;;;12.80;99.90;;;;;;5016197;28;20466;-72
2023/01/07 03:07:13;;;;;;;3.10;2.30;;;12.80;99.90;;;;;;5017342;28;20979;-72
2023/01/07 03:09:57;;;;;;;2.63;2.10;;;12.80;99.90;;;;;;5019961;28;21221;-72
2023/01/07 03:12:45;;;;;;;3.00;2.20;;;12.80;99.90;;;;;;5017158;28;20415;-72
2023/01/07 03:15:18;;;;;;;3.40;2.40;;;12.80;99.90;;;;;;5015063;28;21124;-72
2023/01/07 03:17:52;;;;;;;7.10;2.33;;;12.80;99.90;;;;;;5018511;28;20415;-72
2023/01/07 03:20:22;;;;;;;2.67;2.10;;;12.80;99.90;;;;;;5017217;28;20557;-73
2023/01/07 03:22:50;;;;;;;2.47;1.80;;;12.80;99.90;;;;;;5016491;28;20450;-75
2023/01/07 03:25:17;;;;;;;3.50;2.27;;;12.80;99.90;;;;;;5016648;28;20442;-72
2023/01/07 03:27:45;;;;;;;2.97;1.97;;;12.80;99.90;;;;;;5015207;28;20516;-72
2023/01/07 03:30:14;;;;;;;2.87;2.20;;;12.70;99.90;;;;;;5017151;28;20474;-73
2023/01/07 03:33:23;;;;;;;3.87;1.87;;;12.70;99.90;;;;;;5012125;28;20831;-72
2023/01/07 03:35:51;;;;;;;2.77;2.17;;;12.70;99.90;;;;;;5010566;28;20461;-72
2023/01/07 03:38:20;;;;;;;2.83;2.17;;;12.70;99.90;;;;;;5011375;28;20447;-72
2023/01/07 03:40:46;;;;;;;2.20;2.00;;;12.70;99.90;;;;;;5012546;28;20440;-72
2023/01/07 03:43:18;;;;;;;3.43;2.20;;;12.70;99.90;;;;;;5014594;28;20457;-72
2023/01/07 03:45:44;;;;;;;2.63;1.97;;;12.70;99.90;;;;;;5014041;28;20212;-72
2023/01/07 03:48:10;;;;;;;4.70;2.17;;;12.70;99.90;;;;;;5011737;28;21432;-72
2023/01/07 03:50:35;;;;;;;2.77;2.30;;;12.70;99.90;;;;;;5015412;28;20443;-72
2023/01/07 03:53:01;;;;;;;4.07;1.80;;;12.70;99.90;;;;;;5012714;28;20871;-72
2023/01/07 03:55:27;;;;;;;2.67;2.03;;;12.80;99.90;;;;;;5015886;28;20188;-73
2023/01/07 03:57:52;;;;;;;2.73;2.00;;;12.80;99.90;;;;;;5016822;28;20386;-73
2023/01/07 04:00:18;;;;;;;2.50;1.87;;;12.80;99.90;;;;;;5012594;28;20627;-73
2023/01/07 04:02:44;;;;;;;4.47;2.37;;;12.80;99.90;;;;;;5015945;28;20189;-73
2023/01/07 04:05:10;;;;;;;2.90;2.10;;;12.80;99.90;;;;;;5015355;28;20185;-72
2023/01/07 04:07:35;;;;;;;2.50;2.30;;;12.80;99.90;;;;;;5013787;28;20525;-72
2023/01/07 04:10:01;;;;;;;3.10;1.97;;;12.80;99.90;;;;;;5015299;28;21295;-73
2023/01/07 04:12:27;;;;;;;2.50;2.20;;;12.80;99.90;;;;;;5016322;28;20193;-73
2023/01/07 04:14:52;;;;;;;3.30;2.27;;;12.80;99.90;;;;;;5015347;28;20174;-71
2023/01/07 04:17:18;;;;;;;2.40;2.03;;;12.80;99.90;;;;;;5015502;28;20212;-71
2023/01/07 04:19:44;;;;;;;3.53;2.20;;;12.80;99.90;;;;;;5015123;28;20191;-73
2023/01/07 04:22:10;;;;;;;3.03;1.87;;;12.80;99.90;;;;;;5015963;28;20180;-73
2023/01/07 04:24:36;;;;;;;3.07;2.10;;;12.80;99.90;;;;;;5016946;28;20530;-72
2023/01/07 04:27:02;;;;;;;4.50;2.70;;;12.80;99.90;;;;;;5016548;28;21004;-73
2023/01/07 04:29:27;;;;;;;3.80;2.77;;;12.80;99.90;;;;;;5015458;28;20187;-73
2023/01/07 04:31:53;;;;;;;3.60;2.40;;;12.80;99.90;;;;;;5013041;28;20435;-73
2023/01/07 04:34:19;;;;;;;3.53;2.10;;;12.70;99.90;;;;;;5018775;28;20189;-73
2023/01/07 04:36:44;;;;;;;2.50;1.80;;;12.70;99.90;;;;;;5016681;28;20215;-73
2023/01/07 04:39:11;;;;;;;6.70;2.17;;;12.80;99.90;;;;;;5016045;28;21049;-73
2023/01/07 04:41:37;;;;;;;4.20;2.10;;;12.80;99.90;;;;;;5018713;28;20302;-73
2023/01/07 04:44:02;;;;;;;3.27;2.37;;;12.80;99.90;;;;;;5016515;28;20526;-73
2023/01/07 04:46:28;;;;;;;6.23;2.90;;;12.70;99.90;;;;;;5018054;28;20278;-72
2023/01/07 04:48:53;;;;;;;3.70;2.17;;;12.70;99.90;;;;;;5017729;28;20866;-72
2023/01/07 04:51:19;;;;;;;4.80;2.47;;;12.70;99.90;;;;;;5015022;28;20199;-73
2023/01/07 04:53:45;;;;;;;2.57;1.93;;;12.70;99.90;;;;;;5013429;28;20185;-73
2023/01/07 04:56:11;;;;;;;2.00;1.70;;;12.70;99.90;;;;;;5016664;28;20546;-73
2023/01/07 04:58:36;;;;;;;4.07;2.33;;;12.60;99.90;;;;;;5018548;28;20419;-73
2023/01/07 05:01:02;;;;;;;2.60;1.83;;;12.60;99.90;;;;;;5019551;28;20188;-73
2023/01/07 05:03:29;;;;;;;2.53;1.80;;;12.60;99.90;;;;;;5019656;28;20193;-73
2023/01/07 05:05:55;;;;;;;4.70;1.80;;;12.60;99.90;;;;;;5016429;28;20800;-73
2023/01/07 05:08:20;;;;;;;2.10;1.90;;;12.60;99.90;;;;;;5018540;28;20944;-72
2023/01/07 05:10:48;;;;;;;2.73;1.77;;;12.60;99.90;;;;;;5021284;28;20177;-72
2023/01/07 05:13:17;;;;;;;2.60;1.70;;;12.70;99.90;;;;;;5020399;28;20603;-72
2023/01/07 05:15:42;;;;;;;1.80;1.47;;;12.60;99.90;;;;;;5019750;28;20830;-71
2023/01/07 05:18:08;;;;;;;2.37;1.50;;;12.60;99.90;;;;;;5016959;28;20432;-72
2023/01/07 05:20:34;;;;;;;2.30;1.70;;;12.60;99.90;;;;;;5019643;28;20756;-71
2023/01/07 05:22:59;;;;;;;1.93;1.53;;;12.60;99.90;;;;;;5018740;28;20932;-72
2023/01/07 05:25:25;;;;;;;1.83;1.47;;;12.50;99.90;;;;;;5017712;28;20263;-72
2023/01/07 05:27:50;;;;;;;2.00;1.57;;;12.40;99.90;;;;;;5016611;28;20300;-72
2023/01/07 05:30:16;;;;;;;1.80;1.40;;;12.50;99.90;;;;;;5017595;28;20173;-72
2023/01/07 05:32:42;;;;;;;2.57;1.47;;;12.50;99.90;;;;;;5012346;28;20185;-73
2023/01/07 05:35:08;;;;;;;2.60;1.70;;;12.50;99.90;;;;;;5015785;28;20188;-73
2023/01/07 05:37:33;;;;;;;2.83;1.30;;;12.60;99.90;;;;;;5014834;28;20716;-72
2023/01/07 05:39:59;;;;;;;2.87;1.73;;;12.60;99.90;;;;;;5015787;28;20439;-74
2023/01/07 05:42:24;;;;;;;4.60;1.60;;;12.60;99.90;;;;;;5017475;28;20188;-74
2023/01/07 05:44:50;;;;;;;1.80;1.40;;;12.50;99.90;;;;;;5012013;28;20254;-73
2023/01/07 05:47:16;;;;;;;1.80;1.40;;;12.60;99.90;;;;;;5013461;28;20212;-74
2023/01/07 05:49:42;;;;;;;1.90;1.40;;;12.60;99.90;;;;;;5015979;28;20177;-73
2023/01/07 05:52:07;;;;;;;2.77;1.43;;;12.60;99.90;;;;;;5012234;28;20461;-73
2023/01/07 05:54:33;;;;;;;1.80;1.50;;;12.60;99.90;;;;;;5019172;28;20275;-73
2023/01/07 05:56:59;;;;;;;2.00;1.50;;;12.60;99.90;;;;;;5013862;28;20869;-73
2023/01/07 05:59:24;;;;;;;2.00;1.40;;;12.60;99.90;;;;;;5018274;28;20193;-73
2023/01/07 06:01:50;;;;;;;2.47;1.77;;;12.60;99.90;;;;;;5015610;28;20196;-73
2023/01/07 06:04:15;;;;;;;2.03;1.47;;;12.60;99.90;;;;;;5018014;28;20189;-73
2023/01/07 06:06:41;;;;;;;1.70;1.40;;;12.60;99.90;;;;;;5013617;28;20663;-73
2023/01/07 06:09:06;;;;;;;1.80;1.40;;;12.60;99.90;;;;;;5016161;28;20246;-72
2023/01/07 06:11:32;;;;;;;1.80;1.40;;;12.70;99.90;;;;;;5014604;28;20189;-73
2023/01/07 06:13:57;;;;;;;1.80;1.27;;;12.70;99.90;;;;;;5019789;28;20172;-73
2023/01/07 06:16:23;;;;;;;2.50;2.30;;;12.70;99.90;;;;;;5012979;28;20206;-73
2023/01/07 06:18:49;;;;;;;1.60;1.30;;;12.70;99.90;;;;;;5018276;28;20181;-73
2023/01/07 06:21:15;;;;;;;2.67;1.40;;;12.70;99.90;;;;;;5012685;28;20659;-73
2023/01/07 06:23:42;;;;;;;2.13;1.40;;;12.70;99.90;;;;;;5013633;28;20180;-73
2023/01/07 06:26:07;;;;;;;2.43;1.40;;;12.70;99.90;;;;;;5016592;28;20463;-73
2023/01/07 06:28:33;;;;;;;2.17;1.47;;;12.70;99.90;;;;;;5013916;28;20489;-73
2023/01/07 06:30:58;;;;;;;2.20;1.47;;;12.80;99.90;;;;;;5013333;28;20177;-72
2023/01/07 06:33:24;;;;;;;1.70;1.40;;;12.80;99.90;;;;;;5015796;28;20209;-72
2023/01/07 06:35:50;;;;;;;1.80;1.50;;;12.80;99.90;;;;;;5013590;28;20608;-72
2023/01/07 06:38:16;;;;;;;2.13;1.40;;;12.80;99.90;;;;;;5012706;28;20522;-72
2023/01/07 06:40:43;;;;;;;2.30;1.57;;;12.70;99.90;;;;;;5011672;28;20431;-73
2023/01/07 06:43:09;;;;;;;2.10;1.30;;;12.80;99.90;;;;;;5015229;28;20651;-73
2023/01/07 06:45:35;;;;;;;1.67;1.30;;;12.70;99.90;;;;;;5016449;28;20909;-74
2023/01/07 06:48:00;;;;;;;1.80;1.30;;;12.70;99.90;;;;;;5012779;28;20474;-73
2023/01/07 06:50:26;;;;;;;1.60;1.40;;;12.70;99.90;;;;;;5010170;28;20184;-73
2023/01/07 06:52:52;;;;;;;1.67;1.40;;;12.70;99.90;;;;;;5015684;28;20181;-73
2023/01/07 06:55:17;;;;;;;2.13;1.60;;;12.70;99.90;;;;;;5016706;28;20924;-72
2023/01/07 06:57:43;;;;;;;2.00;1.40;;;12.70;99.90;;;;;;5012805;28;20212;-73
2023/01/07 07:00:09;;;;;;;2.93;1.50;;;12.70;99.90;;;;;;5012099;28;20226;-73
2023/01/07 07:02:35;;;;;;;1.80;1.40;;;12.70;99.90;;;;;;5020757;28;20206;-73
2023/01/07 07:05:00;;;;;;;2.23;1.60;;;12.70;99.90;;;;;;5016581;28;20443;-73
2023/01/07 07:07:26;;;;;;;2.27;1.47;;;12.70;99.90;;;;;;5016210;28;20218;-73
2023/01/07 07:09:51;;;;;;;2.00;1.50;;;12.60;99.90;;;;;;5015227;28;20238;-73
2023/01/07 07:12:18;;;;;;;2.43;1.40;;;12.50;99.90;;;;;;5020028;28;20200;-74
2023/01/07 07:14:44;;;;;;;1.60;1.33;;;12.50;99.90;;;;;;5018208;28;20797;-73
2023/01/07 07:17:09;;;;;;;1.80;1.40;;;12.60;99.90;;;;;;5017318;28;20459;-73
2023/01/07 07:19:35;;;;;;;1.70;1.40;;;12.60;99.90;;;;;;5013837;28;20662;-74
2023/01/07 07:22:00;;;;;;;2.10;1.80;;;12.60;99.90;;;;;;5013209;28;20224;-73
2023/01/07 07:24:26;;;;;;;2.23;1.47;;;12.60;99.90;;;;;;5019417;28;20184;-73
2023/01/07 07:26:52;;;;;;;2.37;1.67;;;12.60;99.90;;;;;;5011687;28;20700;-75
2023/01/07 07:29:17;;;;;;;2.10;1.70;;;12.60;99.90;;;;;;5015882;28;20180;-74
2023/01/07 07:31:43;;;;;;;2.00;1.50;;;12.50;99.90;;;;;;5012860;28;20195;-74
2023/01/07 07:34:09;;;;;;;2.20;1.57;;;12.50;99.90;;;;;;5015569;28;21275;-75
2023/01/07 07:36:35;;;;;;;1.80;1.30;;;12.60;99.90;;;;;;5014070;28;20920;-75
2023/01/07 07:39:01;;;;;;;2.00;1.50;;;12.50;99.90;;;;;;5009118;28;20450;-75
2023/01/07 07:41:28;;;;;;;1.90;1.50;;;12.50;99.90;;;;;;5016356;28;20447;-75
2023/01/07 07:43:53;;;;;;;2.27;1.70;;;12.50;99.90;;;;;;5012347;28;20189;-75
2023/01/07 07:46:19;;;;;;;2.23;1.50;;;12.50;99.90;;;;;;5013388;28;20520;-74
2023/01/07 07:48:47;;;;;;;2.33;1.60;;;12.50;99.90;;;;;;5013885;28;20187;-73
2023/01/07 07:51:13;;;;;;;2.03;1.60;;;12.60;99.90;;;;;;5012422;28;20203;-73
2023/01/07 07:53:39;;;;;;;3.30;2.40;;;12.60;99.90;;;;;;5011770;28;20447;-73
2023/01/07 07:56:07;;;;;;;2.50;1.63;;;12.50;99.90;;;;;;5013982;28;20208;-73
2023/01/07 07:58:33;;;;;;;2.07;1.73;;;12.60;99.90;;;;;;5020344;28;20176;-73
2023/01/07 08:00:58;;;;;;;2.37;1.50;;;12.60;99.90;;;;;;5013638;28;20445;-72
2023/01/07 08:03:24;;;;;;;2.87;1.90;;;12.60;99.90;;;;;;5018541;28;20192;-72
2023/01/07 08:05:49;;;;;;;2.03;1.60;;;12.50;99.90;;;;;;5016836;28;20200;-72
2023/01/07 08:08:15;;;;;;;2.27;1.60;;;12.50;99.90;;;;;;5018017;28;20613;-72
2023/01/07 08:10:41;;;;;;;1.90;1.40;;;12.50;99.90;;;;;;5016658;28;20626;-72
2023/01/07 08:13:08;;;;;;;4.70;1.63;;;12.40;99.90;;;;;;5019134;28;20180;-73
2023/01/07 08:15:34;;;;;;;1.80;1.60;;;12.50;99.90;;;;;;5018791;28;20462;-73
2023/01/07 08:18:03;;;;;;;2.83;1.47;;;12.50;99.90;;;;;;5015131;28;21363;-73
2023/01/07 08:20:29;;;;;;;1.97;1.53;;;12.40;99.90;;;;;;5017329;28;20671;-72
2023/01/07 08:22:59;;;;;;;3.10;1.50;;;12.50;99.90;;;;;;5014587;28;21052;-73
2023/01/07 08:25:25;;;;;;;2.40;1.67;;;12.50;99.90;;;;;;5012935;28;20462;-72
2023/01/07 08:27:51;;;;;;;1.80;1.40;;;12.50;99.90;;;;;;5013708;28;21285;-71
2023/01/07 08:30:17;;;;;;;1.73;1.57;;;12.50;99.90;;;;;;5015016;28;20503;-72
2023/01/07 08:32:42;;;;;;;2.00;1.50;;;12.60;99.90;;;;;;5013185;28;21930;-72
2023/01/07 08:35:08;;;;;;;2.27;1.73;;;12.60;99.90;;;;;;5019087;28;20539;-72
2023/01/07 08:37:34;;;;;;;2.00;1.63;;;12.60;99.90;;;;;;5012194;28;20224;-74
2023/01/07 08:39:59;;;;;;;2.10;1.50;;;12.60;99.90;;;;;;5013316;28;20535;-74
2023/01/07 08:42:25;;;;;;;1.97;1.40;;;12.70;99.90;;;;;;5014457;28;20195;-74
2023/01/07 08:44:51;;;;;;;3.30;2.17;;;12.70;99.90;;;;;;5013805;28;20592;-72
2023/01/07 08:47:16;;;;;;;2.67;2.10;;;12.80;99.90;;;;;;5010306;28;20566;-72
2023/01/07 08:49:42;;;;;;;2.67;1.80;;;12.70;99.90;;;;;;5011026;28;20596;-73
2023/01/07 08:52:08;;;;;;;6.10;2.77;;;12.70;99.90;;;;;;5012029;28;20662;-75
2023/01/07 08:54:33;;;;;;;2.13;1.90;;;12.80;99.90;;;;;;5007264;28;20177;-74
2023/01/07 08:57:01;;;;;;;2.33;1.77;;;12.70;99.90;;;;;;5007758;28;20539;-75
2023/01/07 08:59:27;;;;;;;5.93;2.30;;;12.70;99.90;;;;;;5010209;28;20266;-73
2023/01/07 09:01:52;;;;;;;2.63;2.00;;;12.80;99.90;;;;;;5014189;28;20740;-73
2023/01/07 09:04:18;;;;;;;2.83;1.60;;;12.70;99.90;;;;;;5021649;28;20188;-75
2023/01/07 09:06:44;;;;;;;2.97;2.10;;;12.70;99.90;;;;;;5011979;28;20944;-75
2023/01/07 09:09:10;;;;;;;3.27;1.90;;;12.60;99.90;;;;;;5020398;28;20271;-74
2023/01/07 09:11:36;;;;;;;2.20;1.47;;;12.60;99.90;;;;;;5022476;28;20172;-75
2023/01/07 09:14:02;;;;;;;1.90;1.50;;;12.70;99.90;;;;;;5017710;28;20439;-74
2023/01/07 09:16:30;;;;;;;2.50;1.63;;;12.60;99.90;;;;;;5017052;28;20200;-81
2023/01/07 09:18:55;;;;;;;3.03;1.80;;;12.70;99.90;;;;;;5014993;28;20212;-73
2023/01/07 09:21:21;;;;;;;2.43;1.73;;;12.80;99.90;;;;;;5015610;28;20526;-74
2023/01/07 09:23:46;;;;;;;3.30;1.60;;;12.80;99.90;;;;;;5020504;28;20290;-73
2023/01/07 09:26:12;;;;;;;1.90;1.50;;;12.90;99.90;;;;;;5013984;28;20208;-73
2023/01/07 09:28:37;;;;;;;1.70;1.30;;;12.80;99.90;;;;;;5014816;28;20185;-73
2023/01/07 09:31:04;;;;;;;6.73;1.70;;;12.90;99.90;;;;;;5014528;28;21127;-74
2023/01/07 09:33:32;;;;;;;2.50;1.80;;;12.80;99.90;;;;;;5015296;28;20188;-77
2023/01/07 09:35:58;;;;;;;1.63;1.27;;;12.90;99.90;;;;;;5011394;28;20520;-75
2023/01/07 09:38:23;;;;;;;2.07;1.50;;;12.90;99.90;;;;;;5012257;28;20436;-76
2023/01/07 09:40:49;;;;;;;2.00;1.30;;;12.80;99.90;;;;;;5015468;28;20193;-76
2023/01/07 09:43:38;;;;;;;2.30;1.40;;;12.90;99.90;;;;;;5012386;28;20184;-76
2023/01/07 09:46:07;;;;;;;2.00;1.60;;;13.00;99.90;;;;;;5016564;28;20208;-76
2023/01/07 09:48:47;;;;;;;1.97;1.57;;;13.00;99.90;;;;;;5016451;28;20497;-76
2023/01/07 09:51:13;;;;;;;4.27;1.70;;;13.00;99.90;;;;;;5011700;28;20861;-76
2023/01/07 09:53:42;;;;;;;1.70;1.50;;;13.00;99.90;;;;;;5010361;28;20505;-76
2023/01/07 09:56:19;;;;;;;4.40;2.00;;;13.10;99.90;;;;;;5013737;28;20218;-75
2023/01/07 09:58:46;;;;;;;2.40;1.80;;;13.10;99.90;;;;;;5015338;28;20523;-75
2023/01/07 10:01:40;;;;;;;3.03;1.90;;;13.10;99.90;;;;;;5015950;28;20501;-75
2023/01/07 10:04:17;;;;;;;5.50;1.93;;;13.20;99.90;;;;;;5013760;28;20449;-75
2023/01/07 10:07:10;;;;;;;4.23;1.83;;;13.20;99.90;;;;;;5016561;28;20513;-75
2023/01/07 10:09:51;;;;;;;2.40;1.70;;;13.30;99.90;;;;;;5013581;28;20527;-75
2023/01/07 10:12:35;;;;;;;1.93;1.53;;;13.30;99.90;;;;;;5010037;28;20454;-77
2023/01/07 10:15:14;;;;;;;5.93;2.60;;;13.40;99.90;;;;;;5009007;28;20535;-71
2023/01/07 10:18:20;;;;;;;2.80;2.10;;;13.50;99.90;;;;;;5007774;28;20454;-69
2023/01/07 10:20:50;;;;;;;1.93;1.57;;;13.50;99.90;;;;;;5011349;28;20431;-69
2023/01/07 10:23:22;;;;;;;3.07;1.90;;;13.40;99.90;;;;;;5010033;28;20451;-69
2023/01/07 10:25:52;;;;;;;2.77;1.83;;;13.50;99.90;;;;;;5010439;28;20459;-69
2023/01/07 10:28:41;;;;;;;3.20;2.10;;;13.50;99.90;;;;;;5016082;28;20489;-71
2023/01/07 10:31:18;;;;;;;2.13;1.80;;;13.50;99.90;;;;;;5013843;28;20451;-69
2023/01/07 10:33:47;;;;;;;2.53;1.73;;;13.40;99.90;;;;;;5011661;28;20514;-69
2023/01/07 10:36:37;;;;;;;2.57;2.20;;;13.50;99.90;;;;;;5013553;28;20454;-69
2023/01/07 10:39:40;;;;;;;2.10;1.80;;;13.40;99.90;;;;;;5012742;28;20458;-70
2023/01/07 10:42:18;;;;;;;2.37;2.13;;;13.30;99.90;;;;;;5014080;28;20461;-74
2023/01/07 10:45:01;;;;;;;3.47;2.37;;;13.40;99.90;;;;;;5015389;28;20917;-74
2023/01/07 10:48:02;;;;;;;2.30;1.80;;;13.30;99.90;;;;;;5008367;28;20586;-74
2023/01/07 10:51:05;;;;;;;4.57;4.17;;;13.40;99.90;;;;;;4975472;28;20956;-75
2023/01/07 10:53:34;;;;;;;2.90;2.10;;;13.40;99.90;;;;;;5012120;28;20512;-74
2023/01/07 10:56:08;;;;;;;4.23;3.27;;;13.50;99.90;;;;;;5016611;28;20447;-74
2023/01/07 10:58:39;;;;;;;3.50;2.17;;;13.50;99.90;;;;;;5005408;28;20439;-75
2023/01/07 11:01:07;;;;;;;2.67;2.10;;;13.60;99.90;;;;;;5011934;28;20457;-75
2023/01/07 11:03:32;;;;;;;2.60;2.13;;;13.50;99.90;;;;;;5014396;28;20542;-77
2023/01/07 11:06:13;;;;;;;3.03;2.40;;;13.50;99.90;;;;;;5011190;28;20562;-77
2023/01/07 11:08:40;;;;;;;2.40;2.20;;;13.50;99.90;;;;;;5013338;28;20625;-73
2023/01/07 11:11:15;;;;;;;3.90;3.50;;;13.60;99.90;;;;;;5011472;28;20447;-73
2023/01/07 11:13:47;;;;;;;3.20;2.23;;;13.60;99.90;;;;;;5014720;28;20422;-73
2023/01/07 11:16:19;;;;;;;3.30;2.57;;;13.80;99.90;;;;;;5012727;28;20828;-73
2023/01/07 11:19:05;;;;;;;4.43;2.40;;;13.90;99.90;;;;;;5016079;28;20458;-73
2023/01/07 11:21:39;;;;;;;3.00;2.20;;;14.10;99.90;;;;;;5018946;28;20492;-73
2023/01/07 11:24:30;;;;;;;2.70;2.27;;;14.10;99.90;;;;;;5013022;28;20791;-73
2023/01/07 11:27:18;;;;;;;3.07;2.30;;;14.10;99.90;;;;;;5011726;28;20474;-73
2023/01/07 11:30:22;;;;;;;2.37;2.00;;;14.20;99.90;;;;;;5015674;28;20924;-73
2023/01/07 11:32:58;;;;;;;4.03;2.77;;;14.20;99.90;;;;;;5009146;28;20434;-73
2023/01/07 11:35:27;;;;;;;3.37;2.60;;;14.30;99.90;;;;;;5019269;28;20454;-75
2023/01/07 11:37:52;;;;;;;2.30;2.10;;;14.30;99.90;;;;;;5015122;28;20427;-73
2023/01/07 11:40:25;;;;;;;9.10;5.13;;;14.30;99.90;;;;;;5012649;28;20501;-74
2023/01/07 11:43:01;;;;;;;2.60;2.17;;;14.40;99.90;;;;;;5015801;28;20250;-73
2023/01/07 11:45:32;;;;;;;2.57;2.03;;;14.30;99.90;;;;;;5016127;28;20453;-74
2023/01/07 11:48:01;;;;;;;4.37;2.27;;;14.40;99.90;;;;;;5016516;28;20471;-74
2023/01/07 11:50:39;;;;;;;2.47;1.97;;;14.50;99.90;;;;;;5018224;28;20441;-74
2023/01/07 11:53:14;;;;;;;2.27;1.87;;;14.50;99.90;;;;;;5013488;28;20446;-73
2023/01/07 11:56:10;;;;;;;2.20;1.93;;;14.50;99.90;;;;;;5016957;28;20886;-73
2023/01/07 11:58:42;;;;;;;3.53;2.00;;;14.50;99.90;;;;;;5013046;28;20432;-73
2023/01/07 12:01:07;;;;;;;3.33;2.60;;;14.50;99.90;;;;;;5012131;28;20482;-73
2023/01/07 12:03:34;;;;;;;3.70;1.87;;;14.70;99.90;;;;;;5018877;28;21208;-73
2023/01/07 12:06:20;;;;;;;5.40;4.13;;;15.00;99.90;;;;;;5008568;28;20217;-73
2023/01/07 12:09:21;;;;;;;3.80;2.87;;;15.40;99.90;;;;;;5015713;28;20534;-73
2023/01/07 12:11:47;;;;;;;2.63;2.07;;;15.90;99.90;;;;;;5015517;28;20403;-74
2023/01/07 12:14:15;;;;;;;3.30;2.73;;;16.10;99.90;;;;;;5018646;28;20434;-74
2023/01/07 12:16:43;;;;;;;4.00;2.97;;;16.30;99.90;;;;;;5018936;28;20200;-74
2023/01/07 12:19:46;;;;;;;2.47;2.20;;;16.50;99.90;;;;;;5015866;28;20435;-74
2023/01/07 12:22:14;;;;;;;2.23;2.00;;;16.60;99.90;;;;;;5017753;28;21196;-74
2023/01/07 12:25:07;;;;;;;2.90;2.20;;;16.70;99.90;;;;;;5018845;28;20439;-74
2023/01/07 12:27:57;;;;;;;2.60;2.40;;;17.00;99.90;;;;;;5014890;28;20452;-74
2023/01/07 12:30:41;;;;;;;4.50;2.30;;;17.40;99.90;;;;;;5014210;28;20427;-73
2023/01/07 12:33:15;;;;;;;3.10;2.30;;;17.70;99.90;;;;;;5013857;28;20469;-74
2023/01/07 12:35:42;;;;;;;2.70;2.20;;;18.00;99.90;;;;;;5018063;28;20538;-74
2023/01/07 12:38:15;;;;;;;2.73;2.17;;;18.10;99.90;;;;;;5014294;28;20443;-74
2023/01/07 12:41:09;;;;;;;5.10;3.50;;;18.10;99.90;;;;;;5022049;28;21332;-74
2023/01/07 12:43:56;;;;;;;4.00;2.60;;;18.40;99.90;;;;;;5018974;28;20480;-74
2023/01/07 12:46:25;;;;;;;3.27;2.67;;;18.50;99.90;;;;;;5017026;28;20544;-74
2023/01/07 12:48:56;;;;;;;3.20;2.40;;;18.40;99.90;;;;;;5014878;28;20435;-74
2023/01/07 12:51:28;;;;;;;4.00;2.70;;;18.30;99.90;;;;;;5018309;28;20543;-74
2023/01/07 12:54:05;;;;;;;3.33;2.80;;;18.20;99.90;;;;;;5012939;28;20439;-73
2023/01/07 12:56:45;;;;;;;2.67;2.20;;;18.10;99.90;;;;;;5020950;28;20526;-74
2023/01/07 12:59:27;;;;;;;4.10;2.60;;;18.20;99.90;;;;;;5017969;28;20451;-74
2023/01/07 13:01:58;;;;;;;3.07;2.57;;;18.30;99.90;;;;;;5017041;28;20433;-74
2023/01/07 13:04:55;;;;;;;3.40;2.47;;;18.40;99.90;;;;;;5016968;28;20450;-74
2023/01/07 13:07:48;;;;;;;4.10;2.63;;;18.60;99.90;;;;;;5013263;28;20543;-74